CES5680 ZWSH-ZLXN
Flight info
| Callsign | CES5680 |
|---|---|
| Flight time | 3h 22m |
| Altitude | 35100 |
| Route | MAGIV W187 TUSLI W112 VIKUP W191 PANRA UPVOP |
| Aircraft | A320/M-SDE3FGHIRWY/LB1 |
Departure
| Time | 2026-04-22 08:12 |
|---|---|
| Airport | Kashgar Laining International Airport (ZWSH) |
Arrival
| Time | 2026-04-22 11:34 |
|---|---|
| Airport | Xining Caojiabao International Airport (ZLXN) |
| Time | Latitude | Longitude | Altitude | Speed | Heading |
|---|---|---|---|---|---|
| 2026-04-22 07:46 | 39.53755 | 76.00975 | 4522 ft | 0 kts | 175° |
| 2026-04-22 08:03 | 39.53769 | 76.00974 | 4521 ft | 4 kts | 177° |
| 2026-04-22 08:04 | 39.53796 | 76.00973 | 4520 ft | 4 kts | 182° |
| 2026-04-22 08:04 | 39.53823 | 76.00977 | 4521 ft | 4 kts | 193° |
| 2026-04-22 08:04 | 39.53846 | 76.00989 | 4521 ft | 4 kts | 232° |
| 2026-04-22 08:04 | 39.53851 | 76.01002 | 4521 ft | 0 kts | 266° |
| 2026-04-22 08:07 | 39.53851 | 76.00999 | 4521 ft | 2 kts | 266° |
| 2026-04-22 08:07 | 39.53848 | 76.00933 | 4521 ft | 12 kts | 266° |
| 2026-04-22 08:07 | 39.53841 | 76.00808 | 4521 ft | 14 kts | 266° |
| 2026-04-22 08:07 | 39.53834 | 76.00678 | 4521 ft | 15 kts | 266° |
| 2026-04-22 08:08 | 39.53837 | 76.00548 | 4521 ft | 14 kts | 303° |
| 2026-04-22 08:08 | 39.53933 | 76.00527 | 4521 ft | 14 kts | 356° |
| 2026-04-22 08:08 | 39.53976 | 76.00441 | 4521 ft | 14 kts | 261° |
| 2026-04-22 08:08 | 39.53969 | 76.00320 | 4521 ft | 13 kts | 266° |
| 2026-04-22 08:09 | 39.53965 | 76.00200 | 4521 ft | 13 kts | 282° |
| 2026-04-22 08:09 | 39.54043 | 76.00164 | 4521 ft | 12 kts | 355° |
| 2026-04-22 08:09 | 39.54114 | 76.00162 | 4522 ft | 9 kts | 8° |
| 2026-04-22 08:09 | 39.54144 | 76.00221 | 4522 ft | 8 kts | 84° |
| 2026-04-22 08:10 | 39.54147 | 76.00275 | 4520 ft | 0 kts | 85° |
| 2026-04-22 08:11 | 39.54148 | 76.00288 | 4521 ft | 7 kts | 85° |
| 2026-04-22 08:11 | 39.54166 | 76.00612 | 4522 ft | 74 kts | 86° |
| 2026-04-22 08:12 | 39.54219 | 76.01594 | 4521 ft | 142 kts | 86° |
| 2026-04-22 08:12 | 39.54313 | 76.03105 | 4584 ft | 189 kts | 84° |
| 2026-04-22 08:12 | 39.54420 | 76.04786 | 5409 ft | 186 kts | 84° |
| 2026-04-22 08:12 | 39.54505 | 76.06470 | 6268 ft | 189 kts | 85° |
| 2026-04-22 08:13 | 39.54583 | 76.08139 | 6844 ft | 186 kts | 86° |
| 2026-04-22 08:13 | 39.54457 | 76.09829 | 7148 ft | 195 kts | 117° |
| 2026-04-22 08:13 | 39.53557 | 76.11115 | 7609 ft | 194 kts | 139° |
| 2026-04-22 08:13 | 39.52492 | 76.12294 | 7780 ft | 210 kts | 139° |
| 2026-04-22 08:14 | 39.51346 | 76.13585 | 7936 ft | 227 kts | 139° |
| 2026-04-22 08:14 | 39.50126 | 76.14973 | 8139 ft | 241 kts | 139° |
| 2026-04-22 08:14 | 39.48839 | 76.16483 | 8296 ft | 261 kts | 137° |
| 2026-04-22 08:14 | 39.47448 | 76.18147 | 8499 ft | 282 kts | 137° |
| 2026-04-22 08:15 | 39.45995 | 76.19904 | 9035 ft | 289 kts | 137° |
| 2026-04-22 08:15 | 39.44514 | 76.21696 | 9625 ft | 294 kts | 137° |
| 2026-04-22 08:15 | 39.43004 | 76.23520 | 10258 ft | 298 kts | 137° |
| 2026-04-22 08:15 | 39.41482 | 76.25351 | 10947 ft | 300 kts | 138° |
| 2026-04-22 08:16 | 39.39945 | 76.27189 | 11610 ft | 302 kts | 139° |
| 2026-04-22 08:16 | 39.38396 | 76.29035 | 12283 ft | 304 kts | 139° |
| 2026-04-22 08:16 | 39.36834 | 76.30901 | 12906 ft | 308 kts | 139° |
| 2026-04-22 08:16 | 39.35256 | 76.32797 | 13508 ft | 312 kts | 139° |
| 2026-04-22 08:17 | 39.33656 | 76.34725 | 14050 ft | 317 kts | 139° |
| 2026-04-22 08:17 | 39.32134 | 76.36818 | 14577 ft | 324 kts | 131° |
| 2026-04-22 08:17 | 39.30673 | 76.39142 | 14741 ft | 343 kts | 131° |
| 2026-04-22 08:17 | 39.29119 | 76.41572 | 14919 ft | 359 kts | 131° |
| 2026-04-22 08:18 | 39.27489 | 76.44096 | 15168 ft | 372 kts | 132° |
| 2026-04-22 08:18 | 39.25798 | 76.46697 | 15376 ft | 386 kts | 132° |
| 2026-04-22 08:18 | 39.24054 | 76.49392 | 15650 ft | 397 kts | 131° |
| 2026-04-22 08:18 | 39.22267 | 76.52157 | 16020 ft | 404 kts | 132° |
| 2026-04-22 08:19 | 39.20458 | 76.54945 | 16484 ft | 408 kts | 132° |
| 2026-04-22 08:19 | 39.18623 | 76.57765 | 16936 ft | 412 kts | 132° |
| 2026-04-22 08:19 | 39.16772 | 76.60607 | 17374 ft | 416 kts | 132° |
| 2026-04-22 08:19 | 39.14902 | 76.63480 | 17807 ft | 421 kts | 132° |
| 2026-04-22 08:20 | 39.13011 | 76.66380 | 18241 ft | 424 kts | 132° |
| 2026-04-22 08:20 | 39.11108 | 76.69300 | 18677 ft | 427 kts | 132° |
| 2026-04-22 08:20 | 39.09192 | 76.72241 | 19069 ft | 431 kts | 132° |
| 2026-04-22 08:20 | 39.07260 | 76.75201 | 19493 ft | 434 kts | 133° |
| 2026-04-22 08:21 | 39.05310 | 76.78183 | 19892 ft | 437 kts | 133° |
| 2026-04-22 08:21 | 39.03347 | 76.81181 | 20311 ft | 439 kts | 133° |
| 2026-04-22 08:21 | 39.01373 | 76.84189 | 20688 ft | 442 kts | 133° |
| 2026-04-22 08:21 | 38.99382 | 76.87222 | 21056 ft | 445 kts | 133° |
| 2026-04-22 08:22 | 38.97375 | 76.90277 | 21427 ft | 449 kts | 133° |
| 2026-04-22 08:22 | 38.95353 | 76.93347 | 21805 ft | 451 kts | 133° |
| 2026-04-22 08:22 | 38.93319 | 76.96434 | 22154 ft | 454 kts | 133° |
| 2026-04-22 08:22 | 38.91273 | 76.99543 | 22519 ft | 457 kts | 133° |
| 2026-04-22 08:23 | 38.89218 | 77.02670 | 22863 ft | 460 kts | 133° |
| 2026-04-22 08:23 | 38.87149 | 77.05814 | 23198 ft | 462 kts | 133° |
| 2026-04-22 08:23 | 38.85065 | 77.08972 | 23511 ft | 465 kts | 133° |
| 2026-04-22 08:23 | 38.82968 | 77.12142 | 23823 ft | 468 kts | 133° |
| 2026-04-22 08:24 | 38.80854 | 77.15332 | 24133 ft | 471 kts | 133° |
| 2026-04-22 08:24 | 38.78730 | 77.18536 | 24451 ft | 473 kts | 133° |
| 2026-04-22 08:24 | 38.76598 | 77.21753 | 24763 ft | 475 kts | 133° |
| 2026-04-22 08:24 | 38.74452 | 77.24986 | 25045 ft | 477 kts | 133° |
| 2026-04-22 08:25 | 38.72326 | 77.28187 | 25338 ft | 479 kts | 133° |
| 2026-04-22 08:25 | 38.70159 | 77.31445 | 25615 ft | 482 kts | 133° |
| 2026-04-22 08:25 | 38.67984 | 77.34717 | 25901 ft | 484 kts | 133° |
| 2026-04-22 08:25 | 38.65794 | 77.38003 | 26191 ft | 486 kts | 133° |
| 2026-04-22 08:26 | 38.63629 | 77.41336 | 26470 ft | 489 kts | 128° |
| 2026-04-22 08:26 | 38.61831 | 77.45045 | 26604 ft | 492 kts | 117° |
| 2026-04-22 08:26 | 38.60580 | 77.49112 | 26627 ft | 492 kts | 105° |
| 2026-04-22 08:26 | 38.59939 | 77.53401 | 26626 ft | 491 kts | 94° |
| 2026-04-22 08:27 | 38.59910 | 77.57758 | 26627 ft | 489 kts | 83° |
| 2026-04-22 08:27 | 38.60466 | 77.62028 | 26628 ft | 486 kts | 72° |
| 2026-04-22 08:27 | 38.61369 | 77.66195 | 26615 ft | 486 kts | 72° |
| 2026-04-22 08:27 | 38.62271 | 77.70362 | 26616 ft | 486 kts | 72° |
| 2026-04-22 08:28 | 38.63177 | 77.74588 | 26616 ft | 486 kts | 72° |
| 2026-04-22 08:28 | 38.64066 | 77.78756 | 26616 ft | 486 kts | 72° |
| 2026-04-22 08:28 | 38.64942 | 77.82874 | 26619 ft | 486 kts | 72° |
| 2026-04-22 08:28 | 38.65840 | 77.87104 | 26614 ft | 486 kts | 72° |
| 2026-04-22 08:29 | 38.66730 | 77.91282 | 26615 ft | 486 kts | 72° |
| 2026-04-22 08:29 | 38.67617 | 77.95452 | 26616 ft | 486 kts | 72° |
| 2026-04-22 08:29 | 38.68503 | 77.99628 | 26619 ft | 486 kts | 72° |
| 2026-04-22 08:29 | 38.69387 | 78.03801 | 26620 ft | 486 kts | 72° |
| 2026-04-22 08:30 | 38.70269 | 78.07972 | 26622 ft | 486 kts | 72° |
| 2026-04-22 08:30 | 38.71150 | 78.12148 | 26617 ft | 486 kts | 72° |
| 2026-04-22 08:30 | 38.72029 | 78.16326 | 26626 ft | 486 kts | 72° |
| 2026-04-22 08:30 | 38.72909 | 78.20503 | 26626 ft | 485 kts | 72° |
| 2026-04-22 08:31 | 38.73788 | 78.24674 | 26626 ft | 485 kts | 72° |
| 2026-04-22 08:31 | 38.74664 | 78.28846 | 26627 ft | 485 kts | 72° |
| 2026-04-22 08:31 | 38.76406 | 78.37203 | 26625 ft | 486 kts | 72° |
| 2026-04-22 08:32 | 38.77278 | 78.41384 | 26627 ft | 486 kts | 72° |
| 2026-04-22 08:32 | 38.78149 | 78.45568 | 26626 ft | 486 kts | 72° |
| 2026-04-22 08:32 | 38.79019 | 78.49752 | 26635 ft | 486 kts | 72° |
| 2026-04-22 08:32 | 38.79885 | 78.53936 | 26637 ft | 486 kts | 72° |
| 2026-04-22 08:33 | 38.80750 | 78.58118 | 26636 ft | 486 kts | 72° |
| 2026-04-22 08:33 | 38.81613 | 78.62308 | 26635 ft | 486 kts | 72° |
| 2026-04-22 08:33 | 38.82473 | 78.66490 | 26635 ft | 485 kts | 72° |
| 2026-04-22 08:33 | 38.83336 | 78.70686 | 26808 ft | 488 kts | 72° |
| 2026-04-22 08:34 | 38.84201 | 78.74899 | 27088 ft | 489 kts | 72° |
| 2026-04-22 08:34 | 38.85066 | 78.79130 | 27355 ft | 491 kts | 72° |
| 2026-04-22 08:34 | 38.85931 | 78.83369 | 27610 ft | 492 kts | 72° |
| 2026-04-22 08:34 | 38.86799 | 78.87630 | 27850 ft | 494 kts | 72° |
| 2026-04-22 08:35 | 38.87668 | 78.91905 | 28093 ft | 496 kts | 72° |
| 2026-04-22 08:35 | 38.88539 | 78.96190 | 28326 ft | 497 kts | 72° |
| 2026-04-22 08:35 | 38.89413 | 79.00495 | 28547 ft | 499 kts | 72° |
| 2026-04-22 08:35 | 38.90288 | 79.04817 | 28783 ft | 501 kts | 72° |
| 2026-04-22 08:36 | 38.91164 | 79.09153 | 29023 ft | 502 kts | 72° |
| 2026-04-22 08:36 | 38.92040 | 79.13494 | 29343 ft | 501 kts | 72° |
| 2026-04-22 08:36 | 38.92910 | 79.17822 | 29646 ft | 500 kts | 71° |
| 2026-04-22 08:36 | 38.93774 | 79.22147 | 29944 ft | 500 kts | 71° |
| 2026-04-22 08:37 | 38.94635 | 79.26474 | 30236 ft | 500 kts | 71° |
| 2026-04-22 08:37 | 38.95497 | 79.30797 | 30536 ft | 499 kts | 71° |
| 2026-04-22 08:37 | 38.96356 | 79.35118 | 30819 ft | 499 kts | 71° |
| 2026-04-22 08:37 | 38.97214 | 79.39430 | 31116 ft | 498 kts | 71° |
| 2026-04-22 08:38 | 38.98072 | 79.43738 | 31385 ft | 498 kts | 71° |
| 2026-04-22 08:38 | 38.98926 | 79.48042 | 31648 ft | 497 kts | 71° |
| 2026-04-22 08:38 | 38.99776 | 79.52347 | 31935 ft | 496 kts | 71° |
| 2026-04-22 08:38 | 39.00626 | 79.56648 | 32213 ft | 496 kts | 71° |
| 2026-04-22 08:39 | 39.01472 | 79.60943 | 32489 ft | 495 kts | 71° |
| 2026-04-22 08:39 | 39.02314 | 79.65233 | 32762 ft | 494 kts | 71° |
| 2026-04-22 08:39 | 39.03151 | 79.69518 | 33015 ft | 494 kts | 71° |
| 2026-04-22 08:39 | 39.03986 | 79.73807 | 33266 ft | 494 kts | 71° |
| 2026-04-22 08:40 | 39.04823 | 79.78092 | 33507 ft | 494 kts | 71° |
| 2026-04-22 08:40 | 39.05656 | 79.82369 | 33767 ft | 493 kts | 71° |
| 2026-04-22 08:40 | 39.06486 | 79.86640 | 34021 ft | 492 kts | 71° |
| 2026-04-22 08:40 | 39.07316 | 79.90912 | 34255 ft | 492 kts | 71° |
| 2026-04-22 08:41 | 39.08143 | 79.95176 | 34503 ft | 491 kts | 71° |
| 2026-04-22 08:41 | 39.08964 | 79.99433 | 34759 ft | 489 kts | 71° |
| 2026-04-22 08:41 | 39.09778 | 80.03682 | 35002 ft | 489 kts | 70° |
| 2026-04-22 08:41 | 39.10591 | 80.07928 | 35135 ft | 489 kts | 70° |
| 2026-04-22 08:42 | 39.11408 | 80.12183 | 35166 ft | 490 kts | 70° |
| 2026-04-22 08:42 | 39.13036 | 80.20695 | 35163 ft | 489 kts | 70° |
| 2026-04-22 08:43 | 39.14661 | 80.29214 | 35164 ft | 490 kts | 70° |
| 2026-04-22 08:43 | 39.16277 | 80.37735 | 35163 ft | 489 kts | 70° |
| 2026-04-22 08:44 | 39.17878 | 80.46251 | 35163 ft | 489 kts | 70° |
| 2026-04-22 08:44 | 39.19475 | 80.54785 | 35164 ft | 490 kts | 70° |
| 2026-04-22 08:45 | 39.21072 | 80.63321 | 35166 ft | 490 kts | 70° |
| 2026-04-22 08:45 | 39.22668 | 80.71862 | 35169 ft | 490 kts | 70° |
| 2026-04-22 08:46 | 39.24261 | 80.80410 | 35177 ft | 490 kts | 70° |
| 2026-04-22 08:46 | 39.25837 | 80.88970 | 35183 ft | 490 kts | 70° |
| 2026-04-22 08:47 | 39.27405 | 80.97524 | 35183 ft | 490 kts | 70° |
| 2026-04-22 08:47 | 39.28969 | 81.06093 | 35183 ft | 490 kts | 70° |
| 2026-04-22 08:48 | 39.30531 | 81.14651 | 35185 ft | 490 kts | 70° |
| 2026-04-22 08:48 | 39.32088 | 81.23224 | 35179 ft | 490 kts | 70° |
| 2026-04-22 08:49 | 39.33638 | 81.31803 | 35178 ft | 491 kts | 70° |
| 2026-04-22 08:49 | 39.34919 | 81.38939 | 35177 ft | 491 kts | 70° |
| 2026-04-22 08:50 | 39.36462 | 81.47545 | 35178 ft | 492 kts | 70° |
| 2026-04-22 08:50 | 39.37994 | 81.56173 | 35177 ft | 493 kts | 70° |
| 2026-04-22 08:51 | 39.39523 | 81.64814 | 35179 ft | 493 kts | 70° |
| 2026-04-22 08:51 | 39.41050 | 81.73451 | 35172 ft | 493 kts | 70° |
| 2026-04-22 08:52 | 39.42570 | 81.82097 | 35169 ft | 493 kts | 70° |
| 2026-04-22 08:52 | 39.44087 | 81.90760 | 35170 ft | 494 kts | 70° |
| 2026-04-22 08:53 | 39.45597 | 81.99429 | 35169 ft | 494 kts | 70° |
| 2026-04-22 08:53 | 39.47106 | 82.08108 | 35172 ft | 494 kts | 70° |
| 2026-04-22 08:54 | 39.48603 | 82.16781 | 35174 ft | 494 kts | 70° |
| 2026-04-22 08:54 | 39.50086 | 82.25456 | 35174 ft | 494 kts | 70° |
| 2026-04-22 08:55 | 39.51562 | 82.34130 | 35172 ft | 493 kts | 70° |
| 2026-04-22 08:55 | 39.53040 | 82.42807 | 35169 ft | 493 kts | 70° |
| 2026-04-22 08:56 | 39.54502 | 82.51432 | 35177 ft | 493 kts | 70° |
| 2026-04-22 08:56 | 39.55964 | 82.60116 | 35179 ft | 493 kts | 70° |
| 2026-04-22 08:57 | 39.57414 | 82.68788 | 35189 ft | 493 kts | 70° |
| 2026-04-22 08:57 | 39.58861 | 82.77454 | 35210 ft | 492 kts | 70° |
| 2026-04-22 08:58 | 39.60302 | 82.86145 | 35216 ft | 492 kts | 70° |
| 2026-04-22 08:58 | 39.61733 | 82.94818 | 35218 ft | 492 kts | 71° |
| 2026-04-22 08:59 | 39.63157 | 83.03491 | 35215 ft | 492 kts | 71° |
| 2026-04-22 08:59 | 39.64572 | 83.12151 | 35225 ft | 490 kts | 71° |
| 2026-04-22 09:00 | 39.65981 | 83.20798 | 35215 ft | 490 kts | 71° |
| 2026-04-22 09:00 | 39.67382 | 83.29446 | 35211 ft | 489 kts | 71° |
| 2026-04-22 09:01 | 39.68774 | 83.38098 | 35210 ft | 490 kts | 71° |
| 2026-04-22 09:01 | 39.70157 | 83.46749 | 35208 ft | 489 kts | 71° |
| 2026-04-22 09:02 | 39.71533 | 83.55400 | 35205 ft | 489 kts | 71° |
| 2026-04-22 09:02 | 39.72910 | 83.64067 | 35144 ft | 489 kts | 71° |
| 2026-04-22 09:03 | 39.74281 | 83.72699 | 35065 ft | 487 kts | 71° |
| 2026-04-22 09:03 | 39.75632 | 83.81319 | 35042 ft | 487 kts | 71° |
| 2026-04-22 09:04 | 39.76980 | 83.89949 | 35030 ft | 487 kts | 71° |
| 2026-04-22 09:04 | 39.78320 | 83.98595 | 35027 ft | 488 kts | 71° |
| 2026-04-22 09:05 | 39.79658 | 84.07240 | 35023 ft | 488 kts | 71° |
| 2026-04-22 09:05 | 39.80996 | 84.15893 | 35021 ft | 488 kts | 71° |
| 2026-04-22 09:06 | 39.82324 | 84.24558 | 35022 ft | 488 kts | 71° |
| 2026-04-22 09:06 | 39.83640 | 84.33229 | 35024 ft | 489 kts | 71° |
| 2026-04-22 09:07 | 39.84951 | 84.41909 | 35035 ft | 489 kts | 71° |
| 2026-04-22 09:07 | 39.86252 | 84.50530 | 35041 ft | 488 kts | 71° |
| 2026-04-22 09:08 | 39.87549 | 84.59204 | 35044 ft | 488 kts | 72° |
| 2026-04-22 09:08 | 39.88838 | 84.67882 | 35045 ft | 488 kts | 72° |
| 2026-04-22 09:09 | 39.90121 | 84.76558 | 35044 ft | 488 kts | 72° |
| 2026-04-22 09:09 | 39.91400 | 84.85236 | 35044 ft | 487 kts | 72° |
| 2026-04-22 09:10 | 39.92677 | 84.93903 | 35046 ft | 487 kts | 72° |
| 2026-04-22 09:10 | 39.93957 | 85.02559 | 35030 ft | 486 kts | 72° |
| 2026-04-22 09:11 | 39.95218 | 85.11217 | 35024 ft | 486 kts | 72° |
| 2026-04-22 09:11 | 39.96449 | 85.19868 | 35025 ft | 485 kts | 72° |
| 2026-04-22 09:12 | 39.97679 | 85.28512 | 35025 ft | 485 kts | 72° |
| 2026-04-22 09:12 | 39.98909 | 85.37152 | 35025 ft | 485 kts | 72° |
| 2026-04-22 09:13 | 40.00134 | 85.45793 | 35027 ft | 485 kts | 72° |
| 2026-04-22 09:13 | 40.01360 | 85.54445 | 35025 ft | 485 kts | 72° |
| 2026-04-22 09:14 | 40.02578 | 85.63105 | 35027 ft | 486 kts | 72° |
| 2026-04-22 09:14 | 40.03789 | 85.71783 | 35033 ft | 486 kts | 72° |
| 2026-04-22 09:15 | 40.04990 | 85.80461 | 35039 ft | 486 kts | 72° |
| 2026-04-22 09:15 | 40.06182 | 85.89150 | 35039 ft | 486 kts | 72° |
| 2026-04-22 09:16 | 40.07246 | 85.97878 | 35041 ft | 492 kts | 79° |
| 2026-04-22 09:16 | 40.06756 | 86.06893 | 35043 ft | 504 kts | 95° |
| 2026-04-22 09:17 | 40.05528 | 86.15919 | 35041 ft | 505 kts | 95° |
| 2026-04-22 09:17 | 40.04306 | 86.24954 | 35024 ft | 506 kts | 95° |
| 2026-04-22 09:18 | 40.03075 | 86.33995 | 35009 ft | 506 kts | 95° |
| 2026-04-22 09:18 | 40.01828 | 86.43046 | 35015 ft | 507 kts | 95° |
| 2026-04-22 09:19 | 40.00588 | 86.52041 | 35010 ft | 508 kts | 95° |
| 2026-04-22 09:19 | 39.99329 | 86.61103 | 35015 ft | 508 kts | 95° |
| 2026-04-22 09:20 | 39.98062 | 86.70157 | 35023 ft | 508 kts | 95° |
| 2026-04-22 09:20 | 39.96793 | 86.79207 | 35028 ft | 507 kts | 95° |
| 2026-04-22 09:21 | 39.95511 | 86.88254 | 35039 ft | 507 kts | 95° |
| 2026-04-22 09:21 | 39.94230 | 86.97283 | 35062 ft | 506 kts | 95° |
| 2026-04-22 09:22 | 39.92947 | 87.06302 | 35061 ft | 506 kts | 95° |
| 2026-04-22 09:22 | 39.91656 | 87.15306 | 35073 ft | 506 kts | 95° |
| 2026-04-22 09:23 | 39.90356 | 87.24313 | 35073 ft | 506 kts | 95° |
| 2026-04-22 09:23 | 39.89041 | 87.33318 | 35081 ft | 506 kts | 95° |
| 2026-04-22 09:24 | 39.87715 | 87.42309 | 35080 ft | 506 kts | 95° |
| 2026-04-22 09:24 | 39.86392 | 87.51306 | 35078 ft | 506 kts | 95° |
| 2026-04-22 09:25 | 39.85064 | 87.60296 | 35091 ft | 506 kts | 95° |
| 2026-04-22 09:25 | 39.83728 | 87.69295 | 35083 ft | 506 kts | 95° |
| 2026-04-22 09:26 | 39.82381 | 87.78276 | 35090 ft | 506 kts | 95° |
| 2026-04-22 09:26 | 39.81030 | 87.87259 | 35087 ft | 506 kts | 95° |
| 2026-04-22 09:27 | 39.79675 | 87.96247 | 35088 ft | 507 kts | 95° |
| 2026-04-22 09:27 | 39.78306 | 88.05233 | 35091 ft | 507 kts | 95° |
| 2026-04-22 09:28 | 39.76938 | 88.14161 | 35096 ft | 507 kts | 96° |
| 2026-04-22 09:28 | 39.75553 | 88.23155 | 35098 ft | 508 kts | 96° |
| 2026-04-22 09:29 | 39.74159 | 88.32140 | 35104 ft | 507 kts | 96° |
| 2026-04-22 09:29 | 39.72767 | 88.41120 | 35111 ft | 507 kts | 96° |
| 2026-04-22 09:30 | 39.71370 | 88.50084 | 35113 ft | 506 kts | 96° |
| 2026-04-22 09:30 | 39.69956 | 88.59029 | 35115 ft | 505 kts | 96° |
| 2026-04-22 09:31 | 39.68531 | 88.67964 | 35118 ft | 505 kts | 97° |
| 2026-04-22 09:31 | 39.67116 | 88.76885 | 35105 ft | 505 kts | 97° |
| 2026-04-22 09:32 | 39.65702 | 88.85796 | 35067 ft | 504 kts | 97° |
| 2026-04-22 09:32 | 39.64264 | 88.94692 | 35064 ft | 503 kts | 97° |
| 2026-04-22 09:33 | 39.62824 | 89.03567 | 35070 ft | 503 kts | 98° |
| 2026-04-22 09:33 | 39.61388 | 89.12436 | 35071 ft | 502 kts | 98° |
| 2026-04-22 09:34 | 39.59954 | 89.21287 | 35059 ft | 501 kts | 98° |
| 2026-04-22 09:34 | 39.58508 | 89.30120 | 35058 ft | 501 kts | 98° |
| 2026-04-22 09:35 | 39.56326 | 89.43345 | 35068 ft | 500 kts | 99° |
| 2026-04-22 09:35 | 39.54859 | 89.52150 | 35060 ft | 499 kts | 99° |
| 2026-04-22 09:36 | 39.53390 | 89.60939 | 35057 ft | 499 kts | 99° |
| 2026-04-22 09:36 | 39.52161 | 89.68236 | 35052 ft | 498 kts | 99° |
| 2026-04-22 09:37 | 39.50696 | 89.76994 | 35047 ft | 497 kts | 99° |
| 2026-04-22 09:37 | 39.49226 | 89.85745 | 35037 ft | 498 kts | 99° |
| 2026-04-22 09:38 | 39.47736 | 89.94490 | 35040 ft | 497 kts | 99° |
| 2026-04-22 09:38 | 39.46242 | 90.03216 | 35041 ft | 497 kts | 100° |
| 2026-04-22 09:39 | 39.44733 | 90.11946 | 35052 ft | 497 kts | 100° |
| 2026-04-22 09:39 | 39.43234 | 90.20670 | 35058 ft | 496 kts | 100° |
| 2026-04-22 09:40 | 39.41738 | 90.29377 | 35048 ft | 496 kts | 100° |
| 2026-04-22 09:40 | 39.40220 | 90.38063 | 35045 ft | 495 kts | 101° |
| 2026-04-22 09:41 | 39.38695 | 90.46746 | 35048 ft | 495 kts | 101° |
| 2026-04-22 09:41 | 39.37174 | 90.55418 | 35051 ft | 495 kts | 101° |
| 2026-04-22 09:42 | 39.35656 | 90.64086 | 35053 ft | 494 kts | 101° |
| 2026-04-22 09:42 | 39.34118 | 90.72735 | 35053 ft | 494 kts | 101° |
| 2026-04-22 09:43 | 39.32573 | 90.81368 | 35053 ft | 493 kts | 101° |
| 2026-04-22 09:43 | 39.31018 | 90.89995 | 35055 ft | 493 kts | 101° |
| 2026-04-22 09:44 | 39.29469 | 90.98610 | 35056 ft | 492 kts | 101° |
| 2026-04-22 09:44 | 39.27928 | 91.07210 | 35055 ft | 491 kts | 101° |
| 2026-04-22 09:45 | 39.26375 | 91.15785 | 35053 ft | 490 kts | 102° |
| 2026-04-22 09:45 | 39.24815 | 91.24339 | 35053 ft | 489 kts | 102° |
| 2026-04-22 09:46 | 39.23246 | 91.32874 | 35100 ft | 488 kts | 102° |
| 2026-04-22 09:46 | 39.21673 | 91.41390 | 35061 ft | 488 kts | 102° |
| 2026-04-22 09:47 | 39.20250 | 91.49937 | 35068 ft | 487 kts | 99° |
| 2026-04-22 09:47 | 39.19050 | 91.58521 | 35081 ft | 486 kts | 98° |
| 2026-04-22 09:48 | 39.17861 | 91.67093 | 35068 ft | 486 kts | 99° |
| 2026-04-22 09:48 | 39.16598 | 91.75651 | 35064 ft | 486 kts | 100° |
| 2026-04-22 09:49 | 39.15305 | 91.84174 | 35069 ft | 484 kts | 100° |
| 2026-04-22 09:49 | 39.14018 | 91.92693 | 35066 ft | 485 kts | 100° |
| 2026-04-22 09:50 | 39.12731 | 92.01212 | 35075 ft | 484 kts | 100° |
| 2026-04-22 09:50 | 39.11447 | 92.09716 | 35107 ft | 484 kts | 100° |
| 2026-04-22 09:51 | 39.10146 | 92.18220 | 35112 ft | 484 kts | 101° |
| 2026-04-22 09:51 | 39.08912 | 92.26728 | 35108 ft | 483 kts | 95° |
| 2026-04-22 09:52 | 39.09096 | 92.35292 | 35096 ft | 478 kts | 78° |
| 2026-04-22 09:52 | 39.10300 | 92.43716 | 35084 ft | 478 kts | 77° |
| 2026-04-22 09:53 | 39.11495 | 92.52133 | 35088 ft | 478 kts | 77° |
| 2026-04-22 09:53 | 39.12680 | 92.60564 | 35100 ft | 479 kts | 77° |
| 2026-04-22 09:54 | 39.13846 | 92.68939 | 35085 ft | 478 kts | 77° |
| 2026-04-22 09:54 | 39.15027 | 92.77370 | 35083 ft | 478 kts | 77° |
| 2026-04-22 09:55 | 39.16202 | 92.85798 | 35074 ft | 478 kts | 77° |
| 2026-04-22 09:55 | 39.17369 | 92.94230 | 35077 ft | 478 kts | 78° |
| 2026-04-22 09:56 | 39.18525 | 93.02661 | 35078 ft | 478 kts | 78° |
| 2026-04-22 09:56 | 39.19672 | 93.11101 | 35077 ft | 478 kts | 78° |
| 2026-04-22 09:57 | 39.20811 | 93.19539 | 35077 ft | 478 kts | 78° |
| 2026-04-22 09:57 | 39.21952 | 93.27972 | 35082 ft | 478 kts | 78° |
| 2026-04-22 09:58 | 39.23087 | 93.36409 | 35085 ft | 477 kts | 78° |
| 2026-04-22 09:58 | 39.24219 | 93.44842 | 35079 ft | 477 kts | 78° |
| 2026-04-22 09:59 | 39.25338 | 93.53280 | 35081 ft | 477 kts | 78° |
| 2026-04-22 09:59 | 39.26447 | 93.61720 | 35076 ft | 477 kts | 78° |
| 2026-04-22 10:00 | 39.27552 | 93.70160 | 35082 ft | 477 kts | 78° |
| 2026-04-22 10:00 | 39.28651 | 93.78600 | 35060 ft | 477 kts | 78° |
| 2026-04-22 10:01 | 39.29743 | 93.87048 | 35057 ft | 477 kts | 78° |
| 2026-04-22 10:01 | 39.30825 | 93.95441 | 35051 ft | 477 kts | 78° |
| 2026-04-22 10:02 | 39.31909 | 94.03876 | 35052 ft | 476 kts | 78° |
| 2026-04-22 10:02 | 39.32988 | 94.12314 | 35050 ft | 476 kts | 78° |
| 2026-04-22 10:03 | 39.34053 | 94.20750 | 35049 ft | 476 kts | 78° |
| 2026-04-22 10:03 | 39.35106 | 94.29184 | 35050 ft | 475 kts | 78° |
| 2026-04-22 10:04 | 39.36159 | 94.37616 | 35042 ft | 475 kts | 78° |
| 2026-04-22 10:04 | 39.37216 | 94.46051 | 35036 ft | 476 kts | 78° |
| 2026-04-22 10:05 | 39.38267 | 94.54500 | 35035 ft | 476 kts | 78° |
| 2026-04-22 10:05 | 39.39300 | 94.62953 | 35040 ft | 476 kts | 78° |
| 2026-04-22 10:06 | 39.40328 | 94.71414 | 35041 ft | 476 kts | 78° |
| 2026-04-22 10:06 | 39.41353 | 94.79867 | 35043 ft | 476 kts | 78° |
| 2026-04-22 10:07 | 39.42370 | 94.88318 | 35041 ft | 476 kts | 78° |
| 2026-04-22 10:07 | 39.43380 | 94.96771 | 35047 ft | 475 kts | 78° |
| 2026-04-22 10:08 | 39.44389 | 95.05225 | 35044 ft | 476 kts | 79° |
| 2026-04-22 10:08 | 39.45387 | 95.13674 | 35048 ft | 475 kts | 79° |
| 2026-04-22 10:09 | 39.46373 | 95.22073 | 35051 ft | 475 kts | 79° |
| 2026-04-22 10:09 | 39.47360 | 95.30529 | 35055 ft | 475 kts | 78° |
| 2026-04-22 10:10 | 39.48340 | 95.38969 | 35057 ft | 474 kts | 79° |
| 2026-04-22 10:10 | 39.49316 | 95.47409 | 35061 ft | 474 kts | 79° |
| 2026-04-22 10:11 | 39.50281 | 95.55848 | 35070 ft | 474 kts | 79° |
| 2026-04-22 10:11 | 39.51236 | 95.64281 | 35070 ft | 473 kts | 79° |
| 2026-04-22 10:12 | 39.52187 | 95.72706 | 35075 ft | 473 kts | 79° |
| 2026-04-22 10:12 | 39.53132 | 95.81130 | 35078 ft | 472 kts | 79° |
| 2026-04-22 10:13 | 39.54071 | 95.89548 | 35071 ft | 472 kts | 79° |
| 2026-04-22 10:13 | 39.55001 | 95.97959 | 35074 ft | 471 kts | 79° |
| 2026-04-22 10:14 | 39.55638 | 96.06412 | 35077 ft | 475 kts | 90° |
| 2026-04-22 10:14 | 39.54404 | 96.14808 | 35068 ft | 478 kts | 109° |
| 2026-04-22 10:15 | 39.51526 | 96.22583 | 35068 ft | 479 kts | 116° |
| 2026-04-22 10:15 | 39.48492 | 96.30273 | 35066 ft | 480 kts | 116° |
| 2026-04-22 10:16 | 39.45455 | 96.37973 | 35065 ft | 481 kts | 116° |
| 2026-04-22 10:16 | 39.42400 | 96.45664 | 35062 ft | 481 kts | 117° |
| 2026-04-22 10:17 | 39.39333 | 96.53364 | 35068 ft | 482 kts | 116° |
| 2026-04-22 10:17 | 39.36268 | 96.61068 | 35067 ft | 482 kts | 117° |
| 2026-04-22 10:18 | 39.33177 | 96.68773 | 35068 ft | 483 kts | 117° |
| 2026-04-22 10:18 | 39.30100 | 96.76433 | 35066 ft | 484 kts | 117° |
| 2026-04-22 10:19 | 39.26999 | 96.84138 | 35073 ft | 484 kts | 117° |
| 2026-04-22 10:19 | 39.23912 | 96.91865 | 35080 ft | 484 kts | 116° |
| 2026-04-22 10:20 | 39.20860 | 96.99606 | 35082 ft | 484 kts | 116° |
| 2026-04-22 10:20 | 39.17784 | 97.07409 | 35080 ft | 485 kts | 116° |
| 2026-04-22 10:21 | 39.14731 | 97.15096 | 35085 ft | 485 kts | 116° |
| 2026-04-22 10:21 | 39.11642 | 97.22828 | 35082 ft | 486 kts | 117° |
| 2026-04-22 10:22 | 39.08549 | 97.30557 | 35097 ft | 486 kts | 117° |
| 2026-04-22 10:22 | 39.05455 | 97.38289 | 35089 ft | 486 kts | 117° |
| 2026-04-22 10:23 | 39.02348 | 97.46014 | 35084 ft | 486 kts | 117° |
| 2026-04-22 10:23 | 38.99738 | 97.52489 | 35083 ft | 487 kts | 117° |
| 2026-04-22 10:24 | 38.96618 | 97.60222 | 35099 ft | 487 kts | 117° |
| 2026-04-22 10:24 | 38.93489 | 97.67949 | 35102 ft | 488 kts | 117° |
| 2026-04-22 10:25 | 38.90355 | 97.75676 | 35104 ft | 488 kts | 117° |
| 2026-04-22 10:25 | 38.87207 | 97.83399 | 35103 ft | 488 kts | 117° |
| 2026-04-22 10:26 | 38.84049 | 97.91121 | 35104 ft | 489 kts | 117° |
| 2026-04-22 10:26 | 38.80890 | 97.98836 | 35103 ft | 489 kts | 117° |
| 2026-04-22 10:27 | 38.77731 | 98.06543 | 35106 ft | 489 kts | 117° |
| 2026-04-22 10:27 | 38.74559 | 98.14256 | 35103 ft | 489 kts | 117° |
| 2026-04-22 10:28 | 38.71379 | 98.21958 | 35104 ft | 489 kts | 117° |
| 2026-04-22 10:28 | 38.68196 | 98.29656 | 35104 ft | 489 kts | 117° |
| 2026-04-22 10:29 | 38.65011 | 98.37344 | 35107 ft | 489 kts | 118° |
| 2026-04-22 10:29 | 38.61814 | 98.45026 | 35106 ft | 489 kts | 118° |
| 2026-04-22 10:30 | 38.58614 | 98.52701 | 35111 ft | 489 kts | 118° |
| 2026-04-22 10:30 | 38.55413 | 98.60372 | 35113 ft | 489 kts | 118° |
| 2026-04-22 10:31 | 38.52210 | 98.68032 | 35114 ft | 489 kts | 118° |
| 2026-04-22 10:31 | 38.49006 | 98.75687 | 35116 ft | 489 kts | 118° |
| 2026-04-22 10:32 | 38.45794 | 98.83327 | 35117 ft | 488 kts | 118° |
| 2026-04-22 10:32 | 38.42575 | 98.90955 | 35119 ft | 488 kts | 118° |
| 2026-04-22 10:33 | 38.39353 | 98.98582 | 35118 ft | 488 kts | 118° |
| 2026-04-22 10:33 | 38.36119 | 99.06190 | 35124 ft | 488 kts | 118° |
| 2026-04-22 10:34 | 38.32891 | 99.13797 | 35129 ft | 488 kts | 118° |
| 2026-04-22 10:34 | 38.29659 | 99.21401 | 35128 ft | 488 kts | 118° |
| 2026-04-22 10:35 | 38.26416 | 99.28997 | 35132 ft | 488 kts | 118° |
| 2026-04-22 10:35 | 38.23443 | 99.35949 | 35130 ft | 488 kts | 118° |
| 2026-04-22 10:36 | 38.20189 | 99.43527 | 35134 ft | 488 kts | 118° |
| 2026-04-22 10:36 | 38.16930 | 99.51097 | 35136 ft | 488 kts | 118° |
| 2026-04-22 10:37 | 38.12046 | 99.62447 | 35139 ft | 488 kts | 118° |
| 2026-04-22 10:38 | 38.08773 | 99.70008 | 35147 ft | 489 kts | 118° |
| 2026-04-22 10:38 | 38.05505 | 99.77567 | 35147 ft | 489 kts | 118° |
| 2026-04-22 10:39 | 38.02217 | 99.85141 | 35148 ft | 490 kts | 118° |
| 2026-04-22 10:39 | 37.98919 | 99.92700 | 35151 ft | 490 kts | 118° |
| 2026-04-22 10:40 | 37.95626 | 100.00254 | 35153 ft | 490 kts | 118° |
| 2026-04-22 10:40 | 37.92330 | 100.07791 | 35152 ft | 489 kts | 119° |
| 2026-04-22 10:40 | 37.90657 | 100.11595 | 34999 ft | 498 kts | 119° |
| 2026-04-22 10:41 | 37.88966 | 100.15445 | 34739 ft | 500 kts | 119° |
| 2026-04-22 10:41 | 37.87287 | 100.19267 | 34488 ft | 493 kts | 119° |
| 2026-04-22 10:41 | 37.85627 | 100.23044 | 34238 ft | 490 kts | 119° |
| 2026-04-22 10:41 | 37.83970 | 100.26806 | 33990 ft | 488 kts | 119° |
| 2026-04-22 10:42 | 37.82319 | 100.30549 | 33737 ft | 487 kts | 119° |
| 2026-04-22 10:42 | 37.80668 | 100.34292 | 33490 ft | 487 kts | 119° |
| 2026-04-22 10:42 | 37.79015 | 100.38031 | 33237 ft | 487 kts | 119° |
| 2026-04-22 10:42 | 37.77358 | 100.41767 | 32981 ft | 487 kts | 119° |
| 2026-04-22 10:43 | 37.75697 | 100.45504 | 32742 ft | 488 kts | 119° |
| 2026-04-22 10:43 | 37.74035 | 100.49248 | 32492 ft | 488 kts | 119° |
| 2026-04-22 10:43 | 37.72375 | 100.52991 | 32240 ft | 489 kts | 119° |
| 2026-04-22 10:43 | 37.70711 | 100.56734 | 31988 ft | 489 kts | 119° |
| 2026-04-22 10:44 | 37.69042 | 100.60480 | 31739 ft | 489 kts | 120° |
| 2026-04-22 10:44 | 37.67375 | 100.64220 | 31487 ft | 489 kts | 119° |
| 2026-04-22 10:44 | 37.65708 | 100.67962 | 31239 ft | 489 kts | 120° |
| 2026-04-22 10:44 | 37.64063 | 100.71720 | 30988 ft | 489 kts | 118° |
| 2026-04-22 10:45 | 37.62457 | 100.75510 | 30742 ft | 489 kts | 118° |
| 2026-04-22 10:45 | 37.60882 | 100.79304 | 30491 ft | 489 kts | 117° |
| 2026-04-22 10:45 | 37.59308 | 100.83119 | 30242 ft | 490 kts | 117° |
| 2026-04-22 10:45 | 37.57732 | 100.86925 | 29994 ft | 489 kts | 118° |
| 2026-04-22 10:46 | 37.56147 | 100.90722 | 29707 ft | 490 kts | 118° |
| 2026-04-22 10:46 | 37.54552 | 100.94505 | 29193 ft | 487 kts | 118° |
| 2026-04-22 10:46 | 37.52957 | 100.98253 | 28702 ft | 483 kts | 118° |
| 2026-04-22 10:46 | 37.51373 | 101.01966 | 28200 ft | 480 kts | 118° |
| 2026-04-22 10:47 | 37.49799 | 101.05657 | 27695 ft | 477 kts | 118° |
| 2026-04-22 10:47 | 37.48236 | 101.09325 | 27195 ft | 474 kts | 118° |
| 2026-04-22 10:47 | 37.46686 | 101.12968 | 26696 ft | 470 kts | 118° |
| 2026-04-22 10:47 | 37.45168 | 101.16536 | 26205 ft | 467 kts | 118° |
| 2026-04-22 10:48 | 37.43641 | 101.20124 | 25699 ft | 464 kts | 118° |
| 2026-04-22 10:48 | 37.42124 | 101.23688 | 25198 ft | 461 kts | 118° |
| 2026-04-22 10:48 | 37.40611 | 101.27228 | 24790 ft | 457 kts | 118° |
| 2026-04-22 10:48 | 37.39089 | 101.30787 | 24651 ft | 455 kts | 118° |
| 2026-04-22 10:49 | 37.37586 | 101.34302 | 24691 ft | 457 kts | 118° |
| 2026-04-22 10:49 | 37.36082 | 101.37816 | 24689 ft | 457 kts | 118° |
| 2026-04-22 10:49 | 37.34577 | 101.41336 | 24690 ft | 458 kts | 118° |
| 2026-04-22 10:49 | 37.33090 | 101.44811 | 24691 ft | 458 kts | 118° |
| 2026-04-22 10:50 | 37.31580 | 101.48328 | 24694 ft | 458 kts | 118° |
| 2026-04-22 10:50 | 37.30122 | 101.51880 | 24691 ft | 458 kts | 114° |
| 2026-04-22 10:50 | 37.29054 | 101.55636 | 24692 ft | 457 kts | 105° |
| 2026-04-22 10:50 | 37.28188 | 101.59484 | 24689 ft | 457 kts | 105° |
| 2026-04-22 10:51 | 37.27317 | 101.63319 | 24690 ft | 457 kts | 105° |
| 2026-04-22 10:51 | 37.26440 | 101.67159 | 24691 ft | 458 kts | 105° |
| 2026-04-22 10:51 | 37.25559 | 101.70997 | 24690 ft | 457 kts | 105° |
| 2026-04-22 10:51 | 37.24675 | 101.74831 | 24686 ft | 457 kts | 105° |
| 2026-04-22 10:52 | 37.23793 | 101.78660 | 24692 ft | 457 kts | 105° |
| 2026-04-22 10:52 | 37.22909 | 101.82495 | 24693 ft | 458 kts | 105° |
| 2026-04-22 10:52 | 37.22025 | 101.86334 | 24703 ft | 458 kts | 105° |
| 2026-04-22 10:52 | 37.21142 | 101.90167 | 24697 ft | 458 kts | 105° |
| 2026-04-22 10:53 | 37.20256 | 101.94002 | 24702 ft | 457 kts | 105° |
| 2026-04-22 10:53 | 37.19367 | 101.97833 | 24698 ft | 457 kts | 105° |
| 2026-04-22 10:53 | 37.18476 | 102.01656 | 24701 ft | 457 kts | 105° |
| 2026-04-22 10:53 | 37.17581 | 102.05491 | 24698 ft | 459 kts | 105° |
| 2026-04-22 10:54 | 37.16684 | 102.09344 | 24702 ft | 461 kts | 105° |
| 2026-04-22 10:54 | 37.15789 | 102.13196 | 24699 ft | 461 kts | 105° |
| 2026-04-22 10:54 | 37.14890 | 102.17051 | 24704 ft | 461 kts | 105° |
| 2026-04-22 10:54 | 37.13989 | 102.20902 | 24695 ft | 460 kts | 105° |
| 2026-04-22 10:55 | 37.13088 | 102.24750 | 24698 ft | 460 kts | 105° |
| 2026-04-22 10:55 | 37.12183 | 102.28592 | 24699 ft | 460 kts | 107° |
| 2026-04-22 10:55 | 37.11001 | 102.32314 | 24696 ft | 460 kts | 116° |
| 2026-04-22 10:55 | 37.09396 | 102.35785 | 24697 ft | 460 kts | 122° |
| 2026-04-22 10:56 | 37.07699 | 102.39181 | 24702 ft | 461 kts | 122° |
| 2026-04-22 10:56 | 37.05976 | 102.42629 | 24701 ft | 460 kts | 122° |
| 2026-04-22 10:56 | 37.04281 | 102.46028 | 24698 ft | 460 kts | 122° |
| 2026-04-22 10:56 | 37.02590 | 102.49425 | 24700 ft | 460 kts | 122° |
| 2026-04-22 10:57 | 37.00896 | 102.52829 | 24701 ft | 460 kts | 122° |
| 2026-04-22 10:57 | 36.99200 | 102.56228 | 24708 ft | 460 kts | 122° |
| 2026-04-22 10:57 | 36.97523 | 102.59580 | 24707 ft | 461 kts | 123° |
| 2026-04-22 10:57 | 36.95796 | 102.63021 | 24278 ft | 459 kts | 122° |
| 2026-04-22 10:58 | 36.94109 | 102.66380 | 23733 ft | 454 kts | 123° |
| 2026-04-22 10:58 | 36.92439 | 102.69703 | 23166 ft | 451 kts | 123° |
| 2026-04-22 10:58 | 36.90776 | 102.73015 | 22673 ft | 449 kts | 123° |
| 2026-04-22 10:58 | 36.89127 | 102.76298 | 22172 ft | 446 kts | 123° |
| 2026-04-22 10:59 | 36.87481 | 102.79574 | 21672 ft | 443 kts | 123° |
| 2026-04-22 10:59 | 36.85720 | 102.82704 | 21167 ft | 438 kts | 132° |
| 2026-04-22 10:59 | 36.83566 | 102.85352 | 20676 ft | 433 kts | 143° |
| 2026-04-22 10:59 | 36.81085 | 102.87430 | 20170 ft | 426 kts | 155° |
| 2026-04-22 11:00 | 36.78388 | 102.88881 | 19666 ft | 418 kts | 166° |
| 2026-04-22 11:00 | 36.75581 | 102.89683 | 19165 ft | 410 kts | 176° |
| 2026-04-22 11:00 | 36.72782 | 102.89853 | 18842 ft | 395 kts | 187° |
| 2026-04-22 11:00 | 36.70150 | 102.89541 | 18795 ft | 376 kts | 192° |
| 2026-04-22 11:01 | 36.67573 | 102.89183 | 18810 ft | 360 kts | 191° |
| 2026-04-22 11:01 | 36.65164 | 102.88854 | 18810 ft | 345 kts | 192° |
| 2026-04-22 11:01 | 36.62797 | 102.88526 | 18809 ft | 340 kts | 192° |
| 2026-04-22 11:01 | 36.60453 | 102.88195 | 18809 ft | 338 kts | 192° |
| 2026-04-22 11:02 | 36.58116 | 102.87860 | 18810 ft | 338 kts | 192° |
| 2026-04-22 11:02 | 36.55779 | 102.87523 | 18809 ft | 338 kts | 192° |
| 2026-04-22 11:02 | 36.53443 | 102.87187 | 18811 ft | 338 kts | 192° |
| 2026-04-22 11:02 | 36.51103 | 102.86853 | 18811 ft | 338 kts | 192° |
| 2026-04-22 11:03 | 36.48833 | 102.86236 | 18605 ft | 328 kts | 207° |
| 2026-04-22 11:03 | 36.46893 | 102.84867 | 18254 ft | 316 kts | 225° |
| 2026-04-22 11:03 | 36.45427 | 102.82912 | 17900 ft | 305 kts | 241° |
| 2026-04-22 11:03 | 36.44512 | 102.80585 | 17544 ft | 298 kts | 256° |
| 2026-04-22 11:04 | 36.44269 | 102.78079 | 17168 ft | 291 kts | 278° |
| 2026-04-22 11:04 | 36.44848 | 102.75693 | 16769 ft | 290 kts | 297° |
| 2026-04-22 11:04 | 36.45576 | 102.74263 | 16502 ft | 291 kts | 306° |
| 2026-04-22 11:04 | 36.46862 | 102.72314 | 16124 ft | 292 kts | 308° |
| 2026-04-22 11:05 | 36.48123 | 102.70340 | 15736 ft | 291 kts | 307° |
| 2026-04-22 11:05 | 36.49361 | 102.68337 | 15336 ft | 292 kts | 306° |
| 2026-04-22 11:05 | 36.50547 | 102.66293 | 14947 ft | 292 kts | 298° |
| 2026-04-22 11:05 | 36.51253 | 102.63936 | 14796 ft | 293 kts | 281° |
| 2026-04-22 11:06 | 36.51340 | 102.61398 | 14798 ft | 298 kts | 265° |
| 2026-04-22 11:06 | 36.50767 | 102.58929 | 14800 ft | 297 kts | 247° |
| 2026-04-22 11:06 | 36.49856 | 102.56687 | 14807 ft | 284 kts | 246° |
| 2026-04-22 11:06 | 36.48982 | 102.54543 | 14806 ft | 272 kts | 246° |
| 2026-04-22 11:07 | 36.48144 | 102.52490 | 14802 ft | 261 kts | 246° |
| 2026-04-22 11:07 | 36.47346 | 102.50526 | 14765 ft | 251 kts | 246° |
| 2026-04-22 11:07 | 36.46570 | 102.48603 | 14625 ft | 246 kts | 246° |
| 2026-04-22 11:07 | 36.45794 | 102.46725 | 14329 ft | 244 kts | 246° |
| 2026-04-22 11:08 | 36.45019 | 102.44854 | 14028 ft | 244 kts | 245° |
| 2026-04-22 11:08 | 36.44240 | 102.42981 | 13735 ft | 243 kts | 245° |
| 2026-04-22 11:08 | 36.43627 | 102.41045 | 13412 ft | 236 kts | 259° |
| 2026-04-22 11:08 | 36.43474 | 102.39043 | 13068 ft | 230 kts | 275° |
| 2026-04-22 11:09 | 36.43751 | 102.37138 | 12755 ft | 222 kts | 289° |
| 2026-04-22 11:09 | 36.44257 | 102.35325 | 12312 ft | 223 kts | 289° |
| 2026-04-22 11:09 | 36.44761 | 102.33466 | 11717 ft | 230 kts | 289° |
| 2026-04-22 11:09 | 36.45281 | 102.31597 | 11330 ft | 227 kts | 290° |
| 2026-04-22 11:10 | 36.45796 | 102.29765 | 11025 ft | 222 kts | 290° |
| 2026-04-22 11:10 | 36.46298 | 102.27983 | 10734 ft | 216 kts | 290° |
| 2026-04-22 11:10 | 36.46788 | 102.26242 | 10459 ft | 212 kts | 290° |
| 2026-04-22 11:10 | 36.47272 | 102.24524 | 10170 ft | 210 kts | 290° |
| 2026-04-22 11:11 | 36.47753 | 102.22814 | 9888 ft | 210 kts | 290° |
| 2026-04-22 11:11 | 36.48234 | 102.21105 | 9605 ft | 209 kts | 290° |
| 2026-04-22 11:11 | 36.48709 | 102.19411 | 9334 ft | 203 kts | 290° |
| 2026-04-22 11:11 | 36.49158 | 102.17810 | 9069 ft | 190 kts | 290° |
| 2026-04-22 11:12 | 36.49578 | 102.16309 | 8834 ft | 178 kts | 290° |
| 2026-04-22 11:12 | 36.49968 | 102.14911 | 8605 ft | 167 kts | 290° |
| 2026-04-22 11:12 | 36.50346 | 102.13563 | 8385 ft | 163 kts | 290° |
| 2026-04-22 11:12 | 36.50718 | 102.12238 | 8169 ft | 162 kts | 291° |
| 2026-04-22 11:13 | 36.51086 | 102.10922 | 7964 ft | 161 kts | 290° |
| 2026-04-22 11:13 | 36.51454 | 102.09612 | 7742 ft | 161 kts | 290° |
| 2026-04-22 11:13 | 36.51821 | 102.08303 | 7519 ft | 160 kts | 290° |
| 2026-04-22 11:13 | 36.52185 | 102.07001 | 7317 ft | 159 kts | 290° |
| 2026-04-22 11:14 | 36.52547 | 102.05700 | 7137 ft | 159 kts | 289° |
| 2026-04-22 11:14 | 36.52895 | 102.04494 | 7124 ft | 137 kts | 291° |
| 2026-04-22 11:14 | 36.53238 | 102.03301 | 7578 ft | 146 kts | 290° |
| 2026-04-22 11:14 | 36.53574 | 102.02116 | 8327 ft | 148 kts | 291° |
| 2026-04-22 11:15 | 36.53911 | 102.00913 | 8726 ft | 150 kts | 291° |
| 2026-04-22 11:15 | 36.54270 | 101.99654 | 8993 ft | 157 kts | 290° |
| 2026-04-22 11:15 | 36.54604 | 101.98344 | 9308 ft | 160 kts | 288° |
| 2026-04-22 11:15 | 36.54926 | 101.97009 | 9635 ft | 162 kts | 287° |
| 2026-04-22 11:16 | 36.55264 | 101.95662 | 9962 ft | 164 kts | 289° |
| 2026-04-22 11:16 | 36.55616 | 101.94299 | 10279 ft | 168 kts | 288° |
| 2026-04-22 11:16 | 36.55992 | 101.92826 | 10388 ft | 190 kts | 289° |
| 2026-04-22 11:16 | 36.56413 | 101.91182 | 10532 ft | 210 kts | 288° |
| 2026-04-22 11:17 | 36.56880 | 101.89373 | 10676 ft | 228 kts | 288° |
| 2026-04-22 11:17 | 36.57379 | 101.87450 | 10892 ft | 244 kts | 288° |
| 2026-04-22 11:17 | 36.57903 | 101.85433 | 11456 ft | 245 kts | 288° |
| 2026-04-22 11:17 | 36.58427 | 101.83415 | 12217 ft | 245 kts | 288° |
| 2026-04-22 11:18 | 36.58977 | 101.81410 | 12963 ft | 244 kts | 295° |
| 2026-04-22 11:18 | 36.60080 | 101.79847 | 13620 ft | 247 kts | 332° |
| 2026-04-22 11:18 | 36.61753 | 101.79428 | 14292 ft | 253 kts | 7° |
| 2026-04-22 11:18 | 36.63462 | 101.80090 | 14699 ft | 262 kts | 21° |
| 2026-04-22 11:19 | 36.65101 | 101.81076 | 14787 ft | 261 kts | 22° |
| 2026-04-22 11:19 | 36.66728 | 101.82076 | 14795 ft | 261 kts | 25° |
| 2026-04-22 11:19 | 36.68150 | 101.83491 | 14794 ft | 266 kts | 50° |
| 2026-04-22 11:19 | 36.68963 | 101.85562 | 14799 ft | 272 kts | 77° |
| 2026-04-22 11:20 | 36.68938 | 101.87974 | 14802 ft | 288 kts | 106° |
| 2026-04-22 11:20 | 36.68180 | 101.90303 | 14802 ft | 293 kts | 115° |
| 2026-04-22 11:20 | 36.67336 | 101.92618 | 14797 ft | 294 kts | 115° |
| 2026-04-22 11:20 | 36.66486 | 101.94933 | 14797 ft | 294 kts | 115° |
| 2026-04-22 11:21 | 36.65639 | 101.97251 | 14799 ft | 294 kts | 115° |
| 2026-04-22 11:21 | 36.64797 | 101.99566 | 14800 ft | 294 kts | 115° |
| 2026-04-22 11:21 | 36.63956 | 102.01887 | 14801 ft | 294 kts | 114° |
| 2026-04-22 11:21 | 36.63114 | 102.04210 | 14802 ft | 294 kts | 114° |
| 2026-04-22 11:22 | 36.62278 | 102.06525 | 14801 ft | 293 kts | 114° |
| 2026-04-22 11:22 | 36.61443 | 102.08840 | 14796 ft | 293 kts | 114° |
| 2026-04-22 11:22 | 36.60614 | 102.11163 | 14821 ft | 293 kts | 111° |
| 2026-04-22 11:22 | 36.60177 | 102.13632 | 14828 ft | 294 kts | 90° |
| 2026-04-22 11:23 | 36.60465 | 102.16111 | 14810 ft | 289 kts | 66° |
| 2026-04-22 11:23 | 36.61527 | 102.18190 | 14797 ft | 284 kts | 46° |
| 2026-04-22 11:23 | 36.62817 | 102.20062 | 14787 ft | 285 kts | 46° |
| 2026-04-22 11:23 | 36.64041 | 102.22009 | 14770 ft | 287 kts | 56° |
| 2026-04-22 11:24 | 36.64793 | 102.24311 | 14795 ft | 291 kts | 78° |
| 2026-04-22 11:24 | 36.64740 | 102.26827 | 14791 ft | 294 kts | 105° |
| 2026-04-22 11:24 | 36.63849 | 102.29091 | 14781 ft | 292 kts | 129° |
| 2026-04-22 11:24 | 36.62412 | 102.30862 | 14824 ft | 292 kts | 139° |
| 2026-04-22 11:25 | 36.60917 | 102.32565 | 14815 ft | 288 kts | 138° |
| 2026-04-22 11:25 | 36.59489 | 102.34237 | 14783 ft | 276 kts | 138° |
| 2026-04-22 11:25 | 36.58132 | 102.35833 | 14816 ft | 260 kts | 138° |
| 2026-04-22 11:25 | 36.56825 | 102.37357 | 14700 ft | 256 kts | 138° |
| 2026-04-22 11:26 | 36.55538 | 102.38870 | 14460 ft | 254 kts | 139° |
| 2026-04-22 11:26 | 36.54261 | 102.40378 | 14165 ft | 253 kts | 138° |
| 2026-04-22 11:26 | 36.52980 | 102.41866 | 13958 ft | 251 kts | 138° |
| 2026-04-22 11:26 | 36.51709 | 102.43337 | 13717 ft | 249 kts | 138° |
| 2026-04-22 11:27 | 36.50413 | 102.44755 | 13452 ft | 246 kts | 148° |
| 2026-04-22 11:27 | 36.48865 | 102.45566 | 13243 ft | 240 kts | 172° |
| 2026-04-22 11:27 | 36.47229 | 102.45581 | 12967 ft | 233 kts | 194° |
| 2026-04-22 11:27 | 36.45780 | 102.44858 | 12830 ft | 218 kts | 214° |
| 2026-04-22 11:28 | 36.44638 | 102.43665 | 12453 ft | 214 kts | 232° |
| 2026-04-22 11:28 | 36.43883 | 102.42094 | 12091 ft | 209 kts | 248° |
| 2026-04-22 11:28 | 36.43514 | 102.38394 | 11812 ft | 213 kts | 281° |
| 2026-04-22 11:29 | 36.43882 | 102.36618 | 11809 ft | 213 kts | 288° |
| 2026-04-22 11:29 | 36.44349 | 102.34898 | 11767 ft | 213 kts | 290° |
| 2026-04-22 11:29 | 36.44838 | 102.33161 | 11549 ft | 213 kts | 290° |
| 2026-04-22 11:29 | 36.45327 | 102.31431 | 11287 ft | 211 kts | 289° |
| 2026-04-22 11:30 | 36.45811 | 102.29712 | 11012 ft | 211 kts | 290° |
| 2026-04-22 11:30 | 36.46296 | 102.27994 | 10737 ft | 211 kts | 290° |
| 2026-04-22 11:30 | 36.46785 | 102.26256 | 10450 ft | 211 kts | 290° |
| 2026-04-22 11:30 | 36.47261 | 102.24561 | 10175 ft | 210 kts | 290° |
| 2026-04-22 11:31 | 36.47742 | 102.22848 | 9898 ft | 210 kts | 290° |
| 2026-04-22 11:31 | 36.48230 | 102.21116 | 9607 ft | 209 kts | 290° |
| 2026-04-22 11:31 | 36.48693 | 102.19465 | 9341 ft | 200 kts | 290° |
| 2026-04-22 11:31 | 36.49141 | 102.17867 | 9082 ft | 188 kts | 290° |
| 2026-04-22 11:32 | 36.49552 | 102.16398 | 8832 ft | 178 kts | 290° |
| 2026-04-22 11:32 | 36.49944 | 102.15001 | 8625 ft | 167 kts | 291° |
| 2026-04-22 11:32 | 36.50319 | 102.13660 | 8403 ft | 163 kts | 291° |
| 2026-04-22 11:32 | 36.50689 | 102.12341 | 8180 ft | 161 kts | 291° |
| 2026-04-22 11:33 | 36.51056 | 102.11032 | 7979 ft | 160 kts | 291° |
| 2026-04-22 11:33 | 36.51421 | 102.09735 | 7759 ft | 159 kts | 291° |
| 2026-04-22 11:33 | 36.51784 | 102.08440 | 7548 ft | 159 kts | 290° |
| 2026-04-22 11:33 | 36.52144 | 102.07145 | 7333 ft | 159 kts | 290° |
| 2026-04-22 11:34 | 36.52505 | 102.05851 | 7134 ft | 158 kts | 289° |
| 2026-04-22 11:34 | 36.52838 | 102.04646 | 7111 ft | 129 kts | 288° |
| 2026-04-22 11:34 | 36.53075 | 102.03798 | 7110 ft | 79 kts | 289° |
| 2026-04-22 11:34 | 36.53204 | 102.03333 | 7110 ft | 34 kts | 289° |
| 2026-04-22 11:35 | 36.53210 | 102.03202 | 7110 ft | 20 kts | 261° |
| 2026-04-22 11:35 | 36.53176 | 102.03038 | 7111 ft | 14 kts | 230° |
| 2026-04-22 11:35 | 36.53109 | 102.03049 | 7110 ft | 11 kts | 113° |
| 2026-04-22 11:35 | 36.53084 | 102.03142 | 7110 ft | 11 kts | 108° |
| 2026-04-22 11:36 | 36.53058 | 102.03235 | 7110 ft | 12 kts | 110° |
| 2026-04-22 11:36 | 36.53031 | 102.03332 | 7109 ft | 12 kts | 106° |
| 2026-04-22 11:36 | 36.53010 | 102.03424 | 7110 ft | 13 kts | 106° |
| 2026-04-22 11:36 | 36.52979 | 102.03529 | 7109 ft | 13 kts | 110° |
| 2026-04-22 11:37 | 36.52947 | 102.03638 | 7109 ft | 14 kts | 110° |
| 2026-04-22 11:37 | 36.52903 | 102.03744 | 7110 ft | 14 kts | 148° |
| 2026-04-22 11:37 | 36.52829 | 102.03738 | 7109 ft | 9 kts | 134° |
| 2026-04-22 11:37 | 36.52811 | 102.03805 | 7110 ft | 7 kts | 108° |
| 2026-04-22 11:38 | 36.52792 | 102.03875 | 7110 ft | 12 kts | 109° |
| 2026-04-22 11:38 | 36.52764 | 102.03977 | 7109 ft | 13 kts | 109° |
| 2026-04-22 11:38 | 36.52702 | 102.04199 | 7109 ft | 14 kts | 109° |
| 2026-04-22 11:39 | 36.52663 | 102.04278 | 7109 ft | 7 kts | 165° |
| 2026-04-22 11:39 | 36.52635 | 102.04253 | 7109 ft | 4 kts | 238° |
| 2026-04-22 11:39 | 36.52625 | 102.04227 | 7109 ft | 2 kts | 247° |
| 2026-04-22 11:39 | 36.52622 | 102.04217 | 7109 ft | 0 kts | 247° |
| 2026-04-22 11:40 | 36.52619 | 102.04209 | 7110 ft | 1 kts | 247° |
| 2026-04-22 11:40 | 36.52618 | 102.04208 | 7109 ft | 0 kts | 247° |